sensor_id;sensor_type;location;lat;lon;timestamp;temperature;humidity
72602;DHT22;60644;55.858;37.390;2022-10-10T00:02:18;11.61;69.56
72602;DHT22;60644;55.858;37.390;2022-10-10T00:04:43;11.60;69.94
72602;DHT22;60644;55.858;37.390;2022-10-10T00:07:09;11.61;69.57
72602;DHT22;60644;55.858;37.390;2022-10-10T00:09:35;11.61;68.57
72602;DHT22;60644;55.858;37.390;2022-10-10T00:12:01;11.58;68.18
72602;DHT22;60644;55.858;37.390;2022-10-10T00:14:27;11.49;68.36
72602;DHT22;60644;55.858;37.390;2022-10-10T00:16:53;11.45;68.28
72602;DHT22;60644;55.858;37.390;2022-10-10T00:19:19;11.42;68.33
72602;DHT22;60644;55.858;37.390;2022-10-10T00:21:45;11.42;68.84
72602;DHT22;60644;55.858;37.390;2022-10-10T00:24:11;11.43;68.97
72602;DHT22;60644;55.858;37.390;2022-10-10T00:26:37;11.42;68.77
72602;DHT22;60644;55.858;37.390;2022-10-10T00:29:02;11.47;69.26
72602;DHT22;60644;55.858;37.390;2022-10-10T00:31:28;11.52;69.13
72602;DHT22;60644;55.858;37.390;2022-10-10T00:33:54;11.54;69.72
72602;DHT22;60644;55.858;37.390;2022-10-10T00:36:20;11.55;69.00
72602;DHT22;60644;55.858;37.390;2022-10-10T00:38:46;11.51;69.58
72602;DHT22;60644;55.858;37.390;2022-10-10T00:41:13;11.45;70.32
72602;DHT22;60644;55.858;37.390;2022-10-10T00:43:39;11.41;69.70
72602;DHT22;60644;55.858;37.390;2022-10-10T00:46:05;11.41;69.29
72602;DHT22;60644;55.858;37.390;2022-10-10T00:48:40;11.41;69.71
72602;DHT22;60644;55.858;37.390;2022-10-10T00:53:44;11.38;69.09
72602;DHT22;60644;55.858;37.390;2022-10-10T00:56:11;11.37;68.94
72602;DHT22;60644;55.858;37.390;2022-10-10T00:58:40;11.40;68.85
72602;DHT22;60644;55.858;37.390;2022-10-10T01:01:08;11.38;68.49
72602;DHT22;60644;55.858;37.390;2022-10-10T01:03:33;11.37;68.79
72602;DHT22;60644;55.858;37.390;2022-10-10T01:05:59;11.36;69.38
72602;DHT22;60644;55.858;37.390;2022-10-10T01:08:26;11.34;68.92
72602;DHT22;60644;55.858;37.390;2022-10-10T01:14:17;11.30;70.06
72602;DHT22;60644;55.858;37.390;2022-10-10T01:17:26;11.25;69.57
72602;DHT22;60644;55.858;37.390;2022-10-10T01:26:20;11.22;68.33
72602;DHT22;60644;55.858;37.390;2022-10-10T01:29:12;11.15;68.99
72602;DHT22;60644;55.858;37.390;2022-10-10T01:31:43;11.11;69.44
72602;DHT22;60644;55.858;37.390;2022-10-10T01:36:55;11.09;68.88
72602;DHT22;60644;55.858;37.390;2022-10-10T01:42:08;11.11;68.68
72602;DHT22;60644;55.858;37.390;2022-10-10T01:44:34;11.08;68.75
72602;DHT22;60644;55.858;37.390;2022-10-10T01:47:00;11.09;68.41
72602;DHT22;60644;55.858;37.390;2022-10-10T01:49:29;11.08;68.67
72602;DHT22;60644;55.858;37.390;2022-10-10T02:00:04;11.05;69.60
72602;DHT22;60644;55.858;37.390;2022-10-10T02:05:28;11.12;69.66
72602;DHT22;60644;55.858;37.390;2022-10-10T02:10:57;11.09;69.07
72602;DHT22;60644;55.858;37.390;2022-10-10T02:13:29;11.07;68.58
72602;DHT22;60644;55.858;37.390;2022-10-10T02:15:56;11.02;69.45
72602;DHT22;60644;55.858;37.390;2022-10-10T02:18:26;11.01;69.68
72602;DHT22;60644;55.858;37.390;2022-10-10T02:20:54;11.04;69.23
72602;DHT22;60644;55.858;37.390;2022-10-10T02:23:21;11.00;69.43
72602;DHT22;60644;55.858;37.390;2022-10-10T02:25:51;11.00;69.10
72602;DHT22;60644;55.858;37.390;2022-10-10T02:28:33;10.98;68.82
72602;DHT22;60644;55.858;37.390;2022-10-10T02:31:06;10.97;68.82
72602;DHT22;60644;55.858;37.390;2022-10-10T02:34:16;10.97;69.18
72602;DHT22;60644;55.858;37.390;2022-10-10T02:36:45;11.03;69.45
72602;DHT22;60644;55.858;37.390;2022-10-10T02:39:13;11.09;69.19
72602;DHT22;60644;55.858;37.390;2022-10-10T02:41:41;11.09;69.45
72602;DHT22;60644;55.858;37.390;2022-10-10T02:44:10;11.12;69.58
72602;DHT22;60644;55.858;37.390;2022-10-10T02:46:36;11.15;69.36
72602;DHT22;60644;55.858;37.390;2022-10-10T02:49:02;11.14;69.37
72602;DHT22;60644;55.858;37.390;2022-10-10T02:51:28;11.12;68.94
72602;DHT22;60644;55.858;37.390;2022-10-10T02:53:54;11.12;68.86
72602;DHT22;60644;55.858;37.390;2022-10-10T02:56:19;11.13;69.23
72602;DHT22;60644;55.858;37.390;2022-10-10T02:58:45;11.13;68.63
72602;DHT22;60644;55.858;37.390;2022-10-10T03:01:11;11.12;68.37
72602;DHT22;60644;55.858;37.390;2022-10-10T03:03:37;11.04;69.20
72602;DHT22;60644;55.858;37.390;2022-10-10T03:06:03;11.02;69.10
72602;DHT22;60644;55.858;37.390;2022-10-10T03:08:29;11.02;69.16
72602;DHT22;60644;55.858;37.390;2022-10-10T03:10:57;11.05;68.81
72602;DHT22;60644;55.858;37.390;2022-10-10T03:13:24;11.03;68.83
72602;DHT22;60644;55.858;37.390;2022-10-10T03:15:50;11.01;68.99
72602;DHT22;60644;55.858;37.390;2022-10-10T03:18:16;11.05;68.67
72602;DHT22;60644;55.858;37.390;2022-10-10T03:21:00;11.03;68.80
72602;DHT22;60644;55.858;37.390;2022-10-10T03:23:26;11.03;68.36
72602;DHT22;60644;55.858;37.390;2022-10-10T03:25:52;11.03;68.26
72602;DHT22;60644;55.858;37.390;2022-10-10T03:28:19;10.97;68.19
72602;DHT22;60644;55.858;37.390;2022-10-10T03:30:45;10.96;68.34
72602;DHT22;60644;55.858;37.390;2022-10-10T03:33:11;10.98;68.36
72602;DHT22;60644;55.858;37.390;2022-10-10T03:35:37;10.99;68.46
72602;DHT22;60644;55.858;37.390;2022-10-10T03:38:04;11.01;68.50
72602;DHT22;60644;55.858;37.390;2022-10-10T03:40:30;10.97;68.33
72602;DHT22;60644;55.858;37.390;2022-10-10T03:42:56;10.93;68.65
72602;DHT22;60644;55.858;37.390;2022-10-10T03:45:22;10.88;68.68
72602;DHT22;60644;55.858;37.390;2022-10-10T03:47:49;10.77;68.85
72602;DHT22;60644;55.858;37.390;2022-10-10T03:50:15;10.74;68.98
72602;DHT22;60644;55.858;37.390;2022-10-10T03:52:41;10.67;69.04
72602;DHT22;60644;55.858;37.390;2022-10-10T03:55:07;10.64;69.20
72602;DHT22;60644;55.858;37.390;2022-10-10T03:57:33;10.62;69.16
72602;DHT22;60644;55.858;37.390;2022-10-10T03:59:59;10.58;69.19
72602;DHT22;60644;55.858;37.390;2022-10-10T04:02:25;10.59;69.16
72602;DHT22;60644;55.858;37.390;2022-10-10T04:04:51;10.58;69.06
72602;DHT22;60644;55.858;37.390;2022-10-10T04:07:17;10.52;69.08
72602;DHT22;60644;55.858;37.390;2022-10-10T04:09:42;10.49;68.73
72602;DHT22;60644;55.858;37.390;2022-10-10T04:12:08;10.45;68.76
72602;DHT22;60644;55.858;37.390;2022-10-10T04:14:34;10.43;68.74
72602;DHT22;60644;55.858;37.390;2022-10-10T04:17:00;10.39;68.58
72602;DHT22;60644;55.858;37.390;2022-10-10T04:19:26;10.36;69.07
72602;DHT22;60644;55.858;37.390;2022-10-10T04:21:52;10.38;69.08
72602;DHT22;60644;55.858;37.390;2022-10-10T04:24:17;10.42;68.97
72602;DHT22;60644;55.858;37.390;2022-10-10T04:26:43;10.43;68.97
72602;DHT22;60644;55.858;37.390;2022-10-10T04:29:09;10.43;68.82
72602;DHT22;60644;55.858;37.390;2022-10-10T04:31:35;10.45;68.28
72602;DHT22;60644;55.858;37.390;2022-10-10T04:34:01;10.36;68.18
72602;DHT22;60644;55.858;37.390;2022-10-10T04:36:26;10.28;67.94
72602;DHT22;60644;55.858;37.390;2022-10-10T04:38:52;10.19;68.17
72602;DHT22;60644;55.858;37.390;2022-10-10T04:41:18;10.20;68.21
72602;DHT22;60644;55.858;37.390;2022-10-10T04:43:44;10.19;67.94
72602;DHT22;60644;55.858;37.390;2022-10-10T04:46:10;10.10;68.14
72602;DHT22;60644;55.858;37.390;2022-10-10T04:48:36;10.06;68.35
72602;DHT22;60644;55.858;37.390;2022-10-10T04:51:02;10.07;68.26
72602;DHT22;60644;55.858;37.390;2022-10-10T04:53:28;10.10;68.21
72602;DHT22;60644;55.858;37.390;2022-10-10T04:55:54;10.12;68.18
72602;DHT22;60644;55.858;37.390;2022-10-10T04:58:20;10.16;67.93
72602;DHT22;60644;55.858;37.390;2022-10-10T05:00:50;10.14;68.00
72602;DHT22;60644;55.858;37.390;2022-10-10T05:03:16;10.10;67.89
72602;DHT22;60644;55.858;37.390;2022-10-10T05:05:42;10.13;68.00
72602;DHT22;60644;55.858;37.390;2022-10-10T05:08:08;10.14;68.02
72602;DHT22;60644;55.858;37.390;2022-10-10T05:10:35;10.15;68.10
72602;DHT22;60644;55.858;37.390;2022-10-10T05:13:07;10.23;68.07
72602;DHT22;60644;55.858;37.390;2022-10-10T05:15:36;10.28;68.11
72602;DHT22;60644;55.858;37.390;2022-10-10T05:18:02;10.29;67.69
72602;DHT22;60644;55.858;37.390;2022-10-10T05:20:29;10.35;67.73
72602;DHT22;60644;55.858;37.390;2022-10-10T05:22:55;10.33;67.65
72602;DHT22;60644;55.858;37.390;2022-10-10T05:25:21;10.30;67.34
72602;DHT22;60644;55.858;37.390;2022-10-10T05:27:47;10.23;67.47
72602;DHT22;60644;55.858;37.390;2022-10-10T05:30:13;10.19;67.23
72602;DHT22;60644;55.858;37.390;2022-10-10T05:32:39;10.07;66.49
72602;DHT22;60644;55.858;37.390;2022-10-10T05:35:07;10.08;67.15
72602;DHT22;60644;55.858;37.390;2022-10-10T05:37:33;10.08;66.87
72602;DHT22;60644;55.858;37.390;2022-10-10T05:39:59;10.05;66.89
72602;DHT22;60644;55.858;37.390;2022-10-10T05:42:24;10.09;67.52
72602;DHT22;60644;55.858;37.390;2022-10-10T05:44:50;9.96;67.43
72602;DHT22;60644;55.858;37.390;2022-10-10T05:47:16;9.85;67.01
72602;DHT22;60644;55.858;37.390;2022-10-10T05:49:42;9.81;67.29
72602;DHT22;60644;55.858;37.390;2022-10-10T05:52:08;9.81;67.49
72602;DHT22;60644;55.858;37.390;2022-10-10T05:54:34;9.75;67.51
72602;DHT22;60644;55.858;37.390;2022-10-10T05:57:00;9.69;67.55
72602;DHT22;60644;55.858;37.390;2022-10-10T05:59:27;9.74;67.62
72602;DHT22;60644;55.858;37.390;2022-10-10T06:01:53;9.79;67.66
72602;DHT22;60644;55.858;37.390;2022-10-10T06:04:20;9.95;67.47
72602;DHT22;60644;55.858;37.390;2022-10-10T06:06:46;9.96;67.31
72602;DHT22;60644;55.858;37.390;2022-10-10T06:09:12;9.96;67.16
72602;DHT22;60644;55.858;37.390;2022-10-10T06:11:38;9.98;67.27
72602;DHT22;60644;55.858;37.390;2022-10-10T06:14:03;9.98;67.33
72602;DHT22;60644;55.858;37.390;2022-10-10T06:16:29;10.00;67.31
72602;DHT22;60644;55.858;37.390;2022-10-10T06:18:55;10.10;67.46
72602;DHT22;60644;55.858;37.390;2022-10-10T06:21:21;10.19;67.39
72602;DHT22;60644;55.858;37.390;2022-10-10T06:23:48;10.19;67.14
72602;DHT22;60644;55.858;37.390;2022-10-10T06:26:14;10.10;67.29
72602;DHT22;60644;55.858;37.390;2022-10-10T06:28:40;10.16;67.41
72602;DHT22;60644;55.858;37.390;2022-10-10T06:31:07;10.11;67.07
72602;DHT22;60644;55.858;37.390;2022-10-10T06:33:33;9.95;67.59
72602;DHT22;60644;55.858;37.390;2022-10-10T06:36:06;9.97;67.60
72602;DHT22;60644;55.858;37.390;2022-10-10T06:38:40;10.01;67.58
72602;DHT22;60644;55.858;37.390;2022-10-10T06:41:07;10.04;67.55
72602;DHT22;60644;55.858;37.390;2022-10-10T06:43:33;10.09;67.53
72602;DHT22;60644;55.858;37.390;2022-10-10T06:46:00;10.09;67.29
72602;DHT22;60644;55.858;37.390;2022-10-10T06:48:27;10.16;67.38
72602;DHT22;60644;55.858;37.390;2022-10-10T06:51:05;10.24;67.31
72602;DHT22;60644;55.858;37.390;2022-10-10T06:53:32;10.27;67.18
72602;DHT22;60644;55.858;37.390;2022-10-10T06:55:58;10.18;67.12
72602;DHT22;60644;55.858;37.390;2022-10-10T06:58:25;10.21;67.00
72602;DHT22;60644;55.858;37.390;2022-10-10T07:01:00;10.19;66.85
72602;DHT22;60644;55.858;37.390;2022-10-10T07:03:27;10.18;66.75
72602;DHT22;60644;55.858;37.390;2022-10-10T07:05:57;10.16;67.16
72602;DHT22;60644;55.858;37.390;2022-10-10T07:08:23;10.15;67.14
72602;DHT22;60644;55.858;37.390;2022-10-10T07:10:49;10.23;66.93
72602;DHT22;60644;55.858;37.390;2022-10-10T07:13:16;10.34;66.66
72602;DHT22;60644;55.858;37.390;2022-10-10T07:15:42;10.38;66.22
72602;DHT22;60644;55.858;37.390;2022-10-10T07:18:09;10.43;66.21
72602;DHT22;60644;55.858;37.390;2022-10-10T07:20:35;10.43;66.20
72602;DHT22;60644;55.858;37.390;2022-10-10T07:23:02;10.45;66.04
72602;DHT22;60644;55.858;37.390;2022-10-10T07:25:28;10.52;66.26
72602;DHT22;60644;55.858;37.390;2022-10-10T07:27:55;10.58;66.12
72602;DHT22;60644;55.858;37.390;2022-10-10T07:30:22;10.63;65.65
72602;DHT22;60644;55.858;37.390;2022-10-10T07:32:49;10.68;65.89
72602;DHT22;60644;55.858;37.390;2022-10-10T07:35:14;10.68;65.46
72602;DHT22;60644;55.858;37.390;2022-10-10T07:37:41;10.70;64.96
72602;DHT22;60644;55.858;37.390;2022-10-10T07:40:07;10.78;63.13
72602;DHT22;60644;55.858;37.390;2022-10-10T07:42:34;10.83;63.95
72602;DHT22;60644;55.858;37.390;2022-10-10T07:45:00;10.85;62.18
72602;DHT22;60644;55.858;37.390;2022-10-10T07:47:26;10.90;61.55
72602;DHT22;60644;55.858;37.390;2022-10-10T07:49:52;10.97;62.73
72602;DHT22;60644;55.858;37.390;2022-10-10T07:52:17;11.03;63.75
72602;DHT22;60644;55.858;37.390;2022-10-10T07:54:43;11.08;62.73
72602;DHT22;60644;55.858;37.390;2022-10-10T07:57:09;11.09;62.31
72602;DHT22;60644;55.858;37.390;2022-10-10T07:59:35;11.07;64.08
72602;DHT22;60644;55.858;37.390;2022-10-10T08:02:02;11.11;64.50
72602;DHT22;60644;55.858;37.390;2022-10-10T08:04:28;11.12;63.69
72602;DHT22;60644;55.858;37.390;2022-10-10T08:06:53;11.18;63.96
72602;DHT22;60644;55.858;37.390;2022-10-10T08:09:19;11.24;63.86
72602;DHT22;60644;55.858;37.390;2022-10-10T08:11:45;11.28;61.91
72602;DHT22;60644;55.858;37.390;2022-10-10T08:14:11;11.33;62.32
72602;DHT22;60644;55.858;37.390;2022-10-10T08:16:37;11.43;62.79
72602;DHT22;60644;55.858;37.390;2022-10-10T08:19:02;11.52;64.40
72602;DHT22;60644;55.858;37.390;2022-10-10T08:21:29;11.47;63.18
72602;DHT22;60644;55.858;37.390;2022-10-10T08:23:55;11.52;63.11
72602;DHT22;60644;55.858;37.390;2022-10-10T08:26:20;11.49;62.02
72602;DHT22;60644;55.858;37.390;2022-10-10T08:28:47;11.54;62.13
72602;DHT22;60644;55.858;37.390;2022-10-10T08:31:15;11.57;62.66
72602;DHT22;60644;55.858;37.390;2022-10-10T08:33:43;11.66;60.06
72602;DHT22;60644;55.858;37.390;2022-10-10T08:36:15;11.72;58.03
72602;DHT22;60644;55.858;37.390;2022-10-10T08:38:42;11.77;59.96
72602;DHT22;60644;55.858;37.390;2022-10-10T08:43:49;11.89;58.58
72602;DHT22;60644;55.858;37.390;2022-10-10T08:46:55;11.97;62.31
72602;DHT22;60644;55.858;37.390;2022-10-10T08:49:36;11.86;57.87
72602;DHT22;60644;55.858;37.390;2022-10-10T08:52:07;11.85;55.70
72602;DHT22;60644;55.858;37.390;2022-10-10T08:54:40;11.91;59.90
72602;DHT22;60644;55.858;37.390;2022-10-10T08:57:20;11.85;53.55
72602;DHT22;60644;55.858;37.390;2022-10-10T08:59:47;11.89;57.58
72602;DHT22;60644;55.858;37.390;2022-10-10T09:02:26;11.90;59.85
72602;DHT22;60644;55.858;37.390;2022-10-10T09:04:53;11.89;57.83
72602;DHT22;60644;55.858;37.390;2022-10-10T09:10:14;11.85;54.36
72602;DHT22;60644;55.858;37.390;2022-10-10T09:12:59;11.84;57.81
72602;DHT22;60644;55.858;37.390;2022-10-10T09:21:27;11.88;56.96
72602;DHT22;60644;55.858;37.390;2022-10-10T09:24:17;11.91;56.78
72602;DHT22;60644;55.858;37.390;2022-10-10T09:26:48;11.93;54.40
72602;DHT22;60644;55.858;37.390;2022-10-10T09:30:13;11.96;51.56
72602;DHT22;60644;55.858;37.390;2022-10-10T09:32:16;11.98;52.96
72602;DHT22;60644;55.858;37.390;2022-10-10T09:35:20;12.01;49.69
72602;DHT22;60644;55.858;37.390;2022-10-10T09:37:49;12.12;55.11
72602;DHT22;60644;55.858;37.390;2022-10-10T09:40:23;12.13;54.39
72602;DHT22;60644;55.858;37.390;2022-10-10T09:42:50;12.19;53.97
72602;DHT22;60644;55.858;37.390;2022-10-10T09:45:19;12.23;52.02
72602;DHT22;60644;55.858;37.390;2022-10-10T09:47:52;12.30;54.75
72602;DHT22;60644;55.858;37.390;2022-10-10T09:50:19;12.34;52.08
72602;DHT22;60644;55.858;37.390;2022-10-10T09:52:46;12.41;57.00
72602;DHT22;60644;55.858;37.390;2022-10-10T09:55:24;12.42;56.38
72602;DHT22;60644;55.858;37.390;2022-10-10T09:57:54;12.44;53.65
72602;DHT22;60644;55.858;37.390;2022-10-10T10:02:50;12.56;57.91
72602;DHT22;60644;55.858;37.390;2022-10-10T10:05:28;12.52;55.69
72602;DHT22;60644;55.858;37.390;2022-10-10T10:07:53;12.58;56.66
72602;DHT22;60644;55.858;37.390;2022-10-10T10:10:22;12.57;54.53
72602;DHT22;60644;55.858;37.390;2022-10-10T10:12:49;12.53;53.18
72602;DHT22;60644;55.858;37.390;2022-10-10T10:15:22;12.51;54.52
72602;DHT22;60644;55.858;37.390;2022-10-10T10:20:47;12.56;56.75
72602;DHT22;60644;55.858;37.390;2022-10-10T10:23:24;12.52;55.97
72602;DHT22;60644;55.858;37.390;2022-10-10T13:52:20;12.89;52.33
72602;DHT22;60644;55.858;37.390;2022-10-10T13:54:49;12.84;52.83
72602;DHT22;60644;55.858;37.390;2022-10-10T13:57:23;12.85;53.03
72602;DHT22;60644;55.858;37.390;2022-10-10T14:00:05;12.76;52.97
72602;DHT22;60644;55.858;37.390;2022-10-10T14:02:36;12.76;53.59
72602;DHT22;60644;55.858;37.390;2022-10-10T14:05:07;12.75;53.33
72602;DHT22;60644;55.858;37.390;2022-10-10T14:07:36;12.79;53.19
72602;DHT22;60644;55.858;37.390;2022-10-10T14:10:13;12.79;53.30
72602;DHT22;60644;55.858;37.390;2022-10-10T14:12:59;12.78;53.34
72602;DHT22;60644;55.858;37.390;2022-10-10T14:15:47;12.77;53.49
72602;DHT22;60644;55.858;37.390;2022-10-10T14:18:26;12.67;53.59
72602;DHT22;60644;55.858;37.390;2022-10-10T14:20:55;12.49;53.91
72602;DHT22;60644;55.858;37.390;2022-10-10T14:23:31;12.43;54.37
72602;DHT22;60644;55.858;37.390;2022-10-10T14:26:01;12.42;54.35
72602;DHT22;60644;55.858;37.390;2022-10-10T14:28:40;12.36;54.39
72602;DHT22;60644;55.858;37.390;2022-10-10T14:31:12;12.36;54.46
72602;DHT22;60644;55.858;37.390;2022-10-10T14:33:41;12.37;54.65
72602;DHT22;60644;55.858;37.390;2022-10-10T14:36:30;12.28;54.82
72602;DHT22;60644;55.858;37.390;2022-10-10T14:39:12;12.23;55.18
72602;DHT22;60644;55.858;37.390;2022-10-10T14:41:49;12.16;55.08
72602;DHT22;60644;55.858;37.390;2022-10-10T14:44:31;12.07;55.14
72602;DHT22;60644;55.858;37.390;2022-10-10T14:47:07;12.06;55.16
72602;DHT22;60644;55.858;37.390;2022-10-10T14:49:34;12.06;55.38
72602;DHT22;60644;55.858;37.390;2022-10-10T14:52:14;12.02;55.42
72602;DHT22;60644;55.858;37.390;2022-10-10T14:54:42;11.98;55.47
72602;DHT22;60644;55.858;37.390;2022-10-10T14:57:13;11.93;55.45
72602;DHT22;60644;55.858;37.390;2022-10-10T14:59:52;11.92;55.61
72602;DHT22;60644;55.858;37.390;2022-10-10T15:02:30;11.88;55.59
72602;DHT22;60644;55.858;37.390;2022-10-10T15:04:57;11.91;55.71
72602;DHT22;60644;55.858;37.390;2022-10-10T15:07:31;11.89;55.63
72602;DHT22;60644;55.858;37.390;2022-10-10T15:09:57;11.88;55.68
72602;DHT22;60644;55.858;37.390;2022-10-10T15:12:30;11.84;55.88
72602;DHT22;60644;55.858;37.390;2022-10-10T15:15:11;11.84;55.86
72602;DHT22;60644;55.858;37.390;2022-10-10T15:17:43;11.82;55.91
72602;DHT22;60644;55.858;37.390;2022-10-10T15:20:18;11.82;55.97
72602;DHT22;60644;55.858;37.390;2022-10-10T15:23:06;11.78;56.15
72602;DHT22;60644;55.858;37.390;2022-10-10T15:25:36;11.72;56.23
72602;DHT22;60644;55.858;37.390;2022-10-10T15:28:06;11.69;56.20
72602;DHT22;60644;55.858;37.390;2022-10-10T15:30:45;11.64;56.43
72602;DHT22;60644;55.858;37.390;2022-10-10T15:33:14;11.60;56.48
72602;DHT22;60644;55.858;37.390;2022-10-10T15:35:41;11.57;56.54
72602;DHT22;60644;55.858;37.390;2022-10-10T15:38:09;11.55;56.64
72602;DHT22;60644;55.858;37.390;2022-10-10T15:40:35;11.51;56.74
72602;DHT22;60644;55.858;37.390;2022-10-10T15:43:01;11.46;56.78
72602;DHT22;60644;55.858;37.390;2022-10-10T15:45:27;11.40;56.86
72602;DHT22;60644;55.858;37.390;2022-10-10T15:47:53;11.40;56.90
72602;DHT22;60644;55.858;37.390;2022-10-10T15:50:19;11.33;57.06
72602;DHT22;60644;55.858;37.390;2022-10-10T15:52:45;11.32;57.13
72602;DHT22;60644;55.858;37.390;2022-10-10T15:55:13;11.33;57.20
72602;DHT22;60644;55.858;37.390;2022-10-10T15:57:39;11.34;57.15
72602;DHT22;60644;55.858;37.390;2022-10-10T16:00:05;11.30;57.16
72602;DHT22;60644;55.858;37.390;2022-10-10T16:02:38;11.27;57.20
72602;DHT22;60644;55.858;37.390;2022-10-10T16:05:04;11.25;57.20
72602;DHT22;60644;55.858;37.390;2022-10-10T16:07:30;11.19;57.27
72602;DHT22;60644;55.858;37.390;2022-10-10T16:09:56;11.16;57.62
72602;DHT22;60644;55.858;37.390;2022-10-10T16:12:23;11.16;57.66
72602;DHT22;60644;55.858;37.390;2022-10-10T16:14:49;11.13;57.55
72602;DHT22;60644;55.858;37.390;2022-10-10T16:17:14;11.16;57.64
72602;DHT22;60644;55.858;37.390;2022-10-10T16:19:40;11.13;57.70
72602;DHT22;60644;55.858;37.390;2022-10-10T16:22:06;11.13;57.77
72602;DHT22;60644;55.858;37.390;2022-10-10T16:24:32;11.13;57.84
72602;DHT22;60644;55.858;37.390;2022-10-10T16:26:58;11.13;57.85
72602;DHT22;60644;55.858;37.390;2022-10-10T16:29:24;11.12;58.06
72602;DHT22;60644;55.858;37.390;2022-10-10T16:31:50;11.10;58.13
72602;DHT22;60644;55.858;37.390;2022-10-10T16:34:15;11.09;58.14
72602;DHT22;60644;55.858;37.390;2022-10-10T16:36:42;11.10;58.20
72602;DHT22;60644;55.858;37.390;2022-10-10T16:39:08;11.08;58.29
72602;DHT22;60644;55.858;37.390;2022-10-10T16:41:34;11.07;58.53
72602;DHT22;60644;55.858;37.390;2022-10-10T16:44:00;11.00;58.40
72602;DHT22;60644;55.858;37.390;2022-10-10T16:46:26;10.99;58.55
72602;DHT22;60644;55.858;37.390;2022-10-10T16:48:56;10.92;58.74
72602;DHT22;60644;55.858;37.390;2022-10-10T16:51:24;10.89;58.95
72602;DHT22;60644;55.858;37.390;2022-10-10T16:53:50;10.87;58.68
72602;DHT22;60644;55.858;37.390;2022-10-10T16:56:19;10.85;59.12
72602;DHT22;60644;55.858;37.390;2022-10-10T16:58:45;10.82;59.26
72602;DHT22;60644;55.858;37.390;2022-10-10T17:01:14;10.78;59.32
72602;DHT22;60644;55.858;37.390;2022-10-10T17:03:40;10.75;59.46
72602;DHT22;60644;55.858;37.390;2022-10-10T17:06:08;10.71;59.68
72602;DHT22;60644;55.858;37.390;2022-10-10T17:08:35;10.67;59.48
72602;DHT22;60644;55.858;37.390;2022-10-10T17:11:01;10.68;59.57
72602;DHT22;60644;55.858;37.390;2022-10-10T17:13:29;10.68;59.20
72602;DHT22;60644;55.858;37.390;2022-10-10T17:15:56;10.62;59.65
72602;DHT22;60644;55.858;37.390;2022-10-10T17:18:22;10.60;59.65
72602;DHT22;60644;55.858;37.390;2022-10-10T17:20:50;10.54;60.01
72602;DHT22;60644;55.858;37.390;2022-10-10T17:23:16;10.48;59.70
72602;DHT22;60644;55.858;37.390;2022-10-10T17:25:44;10.44;60.13
72602;DHT22;60644;55.858;37.390;2022-10-10T17:28:11;10.42;59.59
72602;DHT22;60644;55.858;37.390;2022-10-10T17:30:45;10.33;61.16
72602;DHT22;60644;55.858;37.390;2022-10-10T17:33:12;10.23;61.00
72602;DHT22;60644;55.858;37.390;2022-10-10T17:35:39;10.16;61.62
72602;DHT22;60644;55.858;37.390;2022-10-10T17:38:09;10.12;60.70
72602;DHT22;60644;55.858;37.390;2022-10-10T17:40:36;10.08;61.33
72602;DHT22;60644;55.858;37.390;2022-10-10T17:43:03;10.07;61.07
72602;DHT22;60644;55.858;37.390;2022-10-10T17:45:28;10.08;60.79
72602;DHT22;60644;55.858;37.390;2022-10-10T17:47:54;10.06;60.67
72602;DHT22;60644;55.858;37.390;2022-10-10T17:50:20;10.05;61.13
72602;DHT22;60644;55.858;37.390;2022-10-10T17:52:46;9.99;62.00
72602;DHT22;60644;55.858;37.390;2022-10-10T17:55:13;9.99;61.38
72602;DHT22;60644;55.858;37.390;2022-10-10T17:57:38;9.98;61.50
72602;DHT22;60644;55.858;37.390;2022-10-10T18:00:05;9.98;61.31
72602;DHT22;60644;55.858;37.390;2022-10-10T18:02:31;9.96;61.28
72602;DHT22;60644;55.858;37.390;2022-10-10T18:05:00;9.97;61.23
72602;DHT22;60644;55.858;37.390;2022-10-10T18:07:27;9.93;61.62
72602;DHT22;60644;55.858;37.390;2022-10-10T18:09:53;9.91;61.27
72602;DHT22;60644;55.858;37.390;2022-10-10T18:12:19;9.90;60.74
72602;DHT22;60644;55.858;37.390;2022-10-10T18:14:45;9.88;61.68
72602;DHT22;60644;55.858;37.390;2022-10-10T18:17:11;9.90;61.50
72602;DHT22;60644;55.858;37.390;2022-10-10T18:19:37;9.92;61.41
72602;DHT22;60644;55.858;37.390;2022-10-10T18:22:03;9.94;61.65
72602;DHT22;60644;55.858;37.390;2022-10-10T18:24:29;9.94;61.67
72602;DHT22;60644;55.858;37.390;2022-10-10T18:26:54;9.93;61.76
72602;DHT22;60644;55.858;37.390;2022-10-10T18:29:20;9.92;61.43
72602;DHT22;60644;55.858;37.390;2022-10-10T18:31:52;9.94;61.68
72602;DHT22;60644;55.858;37.390;2022-10-10T18:34:18;9.92;61.80
72602;DHT22;60644;55.858;37.390;2022-10-10T18:36:44;9.86;61.91
72602;DHT22;60644;55.858;37.390;2022-10-10T18:39:13;9.84;61.86
72602;DHT22;60644;55.858;37.390;2022-10-10T18:41:40;9.79;62.02
72602;DHT22;60644;55.858;37.390;2022-10-10T18:44:10;9.80;61.98
72602;DHT22;60644;55.858;37.390;2022-10-10T18:46:37;9.77;62.31
72602;DHT22;60644;55.858;37.390;2022-10-10T18:49:04;9.71;62.17
72602;DHT22;60644;55.858;37.390;2022-10-10T18:51:33;9.68;62.44
72602;DHT22;60644;55.858;37.390;2022-10-10T18:54:02;9.66;62.34
72602;DHT22;60644;55.858;37.390;2022-10-10T18:56:30;9.65;62.53
72602;DHT22;60644;55.858;37.390;2022-10-10T18:58:58;9.60;62.47
72602;DHT22;60644;55.858;37.390;2022-10-10T19:01:27;9.60;62.69
72602;DHT22;60644;55.858;37.390;2022-10-10T19:03:54;9.60;62.65
72602;DHT22;60644;55.858;37.390;2022-10-10T19:06:21;9.60;62.79
72602;DHT22;60644;55.858;37.390;2022-10-10T19:08:47;9.52;62.69
72602;DHT22;60644;55.858;37.390;2022-10-10T19:11:20;9.50;62.88
72602;DHT22;60644;55.858;37.390;2022-10-10T19:13:47;9.48;62.86
72602;DHT22;60644;55.858;37.390;2022-10-10T19:16:13;9.44;62.82
72602;DHT22;60644;55.858;37.390;2022-10-10T19:18:39;9.45;63.08
72602;DHT22;60644;55.858;37.390;2022-10-10T19:21:06;9.38;62.91
72602;DHT22;60644;55.858;37.390;2022-10-10T19:23:32;9.37;63.06
72602;DHT22;60644;55.858;37.390;2022-10-10T19:26:03;9.39;63.15
72602;DHT22;60644;55.858;37.390;2022-10-10T19:28:30;9.36;63.30
72602;DHT22;60644;55.858;37.390;2022-10-10T19:31:01;9.30;63.34
72602;DHT22;60644;55.858;37.390;2022-10-10T19:33:27;9.27;63.32
72602;DHT22;60644;55.858;37.390;2022-10-10T19:35:52;9.25;63.31
72602;DHT22;60644;55.858;37.390;2022-10-10T19:38:18;9.21;63.41
72602;DHT22;60644;55.858;37.390;2022-10-10T19:40:45;9.19;63.69
72602;DHT22;60644;55.858;37.390;2022-10-10T19:43:11;9.12;63.53